Time;durP1;ratioP1;P1;durP2;ratioP2;P2;SDS_P1;SDS_P2;PMS_P1;PMS_P2;Temp;Humidity;BMP_temperature;BMP_pressure;BME280_temperature;BME280_humidity;BME280_pressure;Samples;Min_cycle;Max_cycle;Signal;HPM_P1;HPM_P2
2021/05/13 00:01:33;;;;;;;6.72;3.92;;;;;;;;;;5054314;28;20551;-58
2021/05/13 00:03:59;;;;;;;5.45;3.72;;;;;;;;;;5035999;28;20052;-58
2021/05/13 00:06:30;;;;;;;6.93;3.90;;;;;;;;;;5053973;28;20050;-58
2021/05/13 00:08:56;;;;;;;5.82;3.50;;;;;;;;;;5053809;28;20087;-58
2021/05/13 00:11:29;;;;;;;3.92;3.25;;;;;;;;;;5036293;28;20036;-58
2021/05/13 00:13:55;;;;;;;4.90;3.40;;;;;;;;;;5053826;28;20121;-58
2021/05/13 00:16:26;;;;;;;7.63;3.53;;;;;;;;;;5053607;28;20036;-58
2021/05/13 00:18:55;;;;;;;7.32;4.72;;;;;;;;;;5036783;28;20057;-58
2021/05/13 00:21:21;;;;;;;9.32;5.05;;;;;;;;;;5054336;28;20025;-58
2021/05/13 00:23:47;;;;;;;15.25;4.78;;;;;;;;;;5036344;28;20021;-58
2021/05/13 00:26:14;;;;;;;5.63;4.47;;;;;;;;;;5053715;28;20033;-58
2021/05/13 00:28:40;;;;;;;5.80;3.65;;;;;;;;;;5053496;28;20378;-58
2021/05/13 00:31:06;;;;;;;6.70;4.38;;;;;;;;;;5035750;28;20032;-58
2021/05/13 00:33:33;;;;;;;5.85;4.80;;;;;;;;;;5035394;28;20115;-58
2021/05/13 00:35:59;;;;;;;8.65;5.03;;;;;;;;;;5032792;28;20490;-58
2021/05/13 00:38:25;;;;;;;8.38;4.57;;;;;;;;;;5032486;28;20030;-58
2021/05/13 00:40:53;;;;;;;7.35;4.80;;;;;;;;;;5033316;28;20034;-58
2021/05/13 00:43:19;;;;;;;5.75;4.20;;;;;;;;;;5049297;28;20057;-58
2021/05/13 00:45:49;;;;;;;7.93;4.55;;;;;;;;;;5033533;28;20079;-58
2021/05/13 00:48:17;;;;;;;5.38;4.50;;;;;;;;;;5032099;28;20034;-58
2021/05/13 00:50:43;;;;;;;9.63;4.50;;;;;;;;;;5033199;28;20029;-58
2021/05/13 00:53:13;;;;;;;6.05;3.60;;;;;;;;;;5031847;28;20034;-58
2021/05/13 00:55:39;;;;;;;4.40;3.38;;;;;;;;;;5064570;28;20033;-58
2021/05/13 00:58:07;;;;;;;5.28;3.03;;;;;;;;;;5031880;28;20064;-58
2021/05/13 01:00:41;;;;;;;5.28;3.63;;;;;;;;;;5032166;28;20396;-58
2021/05/13 01:03:07;;;;;;;3.95;3.10;;;;;;;;;;5033723;28;20036;-58
2021/05/13 01:05:35;;;;;;;6.78;3.17;;;;;;;;;;5035402;28;20111;-58
2021/05/13 01:08:04;;;;;;;7.38;3.17;;;;;;;;;;5053039;28;20459;-58
2021/05/13 01:10:30;;;;;;;9.23;3.38;;;;;;;;;;5036000;28;20391;-58
2021/05/13 01:13:01;;;;;;;4.00;2.95;;;;;;;;;;5036749;28;20352;-58
2021/05/13 01:15:36;;;;;;;4.43;3.72;;;;;;;;;;5051539;28;20112;-58
2021/05/13 01:18:19;;;;;;;8.43;4.78;;;;;;;;;;5037135;28;20034;-58
2021/05/13 01:20:46;;;;;;;8.20;4.82;;;;;;;;;;5037089;28;20107;-58
2021/05/13 01:23:13;;;;;;;7.38;4.78;;;;;;;;;;5036883;28;20352;-58
2021/05/13 01:25:43;;;;;;;5.60;4.63;;;;;;;;;;5035430;28;20068;-58
2021/05/13 01:28:10;;;;;;;7.18;5.63;;;;;;;;;;5069384;28;20022;-58
2021/05/13 01:30:36;;;;;;;9.60;5.22;;;;;;;;;;5035576;28;20460;-58
2021/05/13 01:33:02;;;;;;;7.28;4.50;;;;;;;;;;5036861;28;20060;-58
2021/05/13 01:35:31;;;;;;;8.00;5.47;;;;;;;;;;5051957;28;20374;-58
2021/05/13 01:38:05;;;;;;;9.07;5.07;;;;;;;;;;5051530;28;20103;-58
2021/05/13 01:40:32;;;;;;;8.50;5.47;;;;;;;;;;5068397;28;20036;-58
2021/05/13 01:42:58;;;;;;;5.80;4.80;;;;;;;;;;5035347;28;20034;-58
2021/05/13 01:45:26;;;;;;;5.38;4.88;;;;;;;;;;5036819;28;20116;-58
2021/05/13 01:47:55;;;;;;;5.95;4.97;;;;;;;;;;5035262;28;20044;-58
2021/05/13 01:50:27;;;;;;;9.13;4.65;;;;;;;;;;5035430;28;20034;-59
2021/05/13 01:52:54;;;;;;;9.95;4.80;;;;;;;;;;5035003;28;20659;-59
2021/05/13 01:55:22;;;;;;;5.32;4.68;;;;;;;;;;5036825;28;20112;-59
2021/05/13 01:57:52;;;;;;;10.88;5.40;;;;;;;;;;5036337;28;20029;-58
2021/05/13 02:00:18;;;;;;;10.40;5.47;;;;;;;;;;5037129;28;20053;-59
2021/05/13 02:02:50;;;;;;;6.32;5.07;;;;;;;;;;5034807;28;20033;-59
2021/05/13 02:05:24;;;;;;;8.68;5.50;;;;;;;;;;5035985;28;20483;-59
2021/05/13 02:07:51;;;;;;;5.60;4.22;;;;;;;;;;5036864;28;20059;-59
2021/05/13 02:10:18;;;;;;;7.07;4.70;;;;;;;;;;5034858;28;20029;-58
2021/05/13 02:12:44;;;;;;;6.10;5.32;;;;;;;;;;5035687;28;20087;-58
2021/05/13 02:15:12;;;;;;;9.85;5.82;;;;;;;;;;5035375;28;20025;-58
2021/05/13 02:17:43;;;;;;;6.55;4.07;;;;;;;;;;5067192;28;20038;-58
2021/05/13 02:20:20;;;;;;;6.43;5.03;;;;;;;;;;5035040;28;20026;-57
2021/05/13 02:22:47;;;;;;;5.72;4.85;;;;;;;;;;5034635;28;20037;-58
2021/05/13 02:25:14;;;;;;;6.82;5.43;;;;;;;;;;5067702;28;20037;-59
2021/05/13 02:27:40;;;;;;;5.40;4.72;;;;;;;;;;5036178;28;20021;-59
2021/05/13 02:30:07;;;;;;;6.93;4.85;;;;;;;;;;5034288;28;20025;-59
2021/05/13 02:32:36;;;;;;;5.68;4.75;;;;;;;;;;5034229;28;20029;-58
2021/05/13 02:35:03;;;;;;;7.00;4.97;;;;;;;;;;5067395;28;20099;-58
2021/05/13 02:37:29;;;;;;;7.32;5.15;;;;;;;;;;5051560;28;20051;-58
2021/05/13 02:39:56;;;;;;;7.00;5.32;;;;;;;;;;5055537;28;20032;-58
2021/05/13 02:42:22;;;;;;;6.00;4.63;;;;;;;;;;5056097;28;20409;-58
2021/05/13 02:44:52;;;;;;;7.03;5.20;;;;;;;;;;5055752;28;20057;-58
2021/05/13 02:47:18;;;;;;;7.07;5.50;;;;;;;;;;5055457;28;20025;-58
2021/05/13 02:49:51;;;;;;;7.80;4.75;;;;;;;;;;5037220;28;20024;-58
2021/05/13 02:52:17;;;;;;;6.13;5.15;;;;;;;;;;5055827;28;20025;-58
2021/05/13 02:54:44;;;;;;;5.45;4.28;;;;;;;;;;5036994;28;20112;-58
2021/05/13 02:57:14;;;;;;;6.40;4.75;;;;;;;;;;5055006;28;20029;-59
2021/05/13 02:59:44;;;;;;;7.47;4.40;;;;;;;;;;5054600;28;20021;-58
2021/05/13 03:02:14;;;;;;;6.95;5.03;;;;;;;;;;5055166;28;20477;-58
2021/05/13 03:04:41;;;;;;;5.65;4.28;;;;;;;;;;5054960;28;20040;-58
2021/05/13 03:07:08;;;;;;;7.50;4.80;;;;;;;;;;5037310;28;20404;-58
2021/05/13 03:09:40;;;;;;;7.07;4.97;;;;;;;;;;5036657;28;20029;-58
2021/05/13 03:12:06;;;;;;;8.68;5.68;;;;;;;;;;5053685;28;20044;-58
2021/05/13 03:14:33;;;;;;;5.60;4.20;;;;;;;;;;5036582;28;20033;-58
2021/05/13 03:17:02;;;;;;;7.88;4.70;;;;;;;;;;5036622;28;20025;-58
2021/05/13 03:19:41;;;;;;;6.15;4.88;;;;;;;;;;5036868;28;20356;-58
2021/05/13 03:22:13;;;;;;;4.93;4.28;;;;;;;;;;5054970;28;20025;-58
2021/05/13 03:25:04;;;;;;;7.25;4.78;;;;;;;;;;5037406;28;20112;-57
2021/05/13 03:27:50;;;;;;;5.30;4.28;;;;;;;;;;5036674;28;20028;-58
2021/05/13 03:30:23;;;;;;;4.63;3.90;;;;;;;;;;5054230;28;20082;-58
2021/05/13 03:32:53;;;;;;;9.90;4.65;;;;;;;;;;5054737;28;20033;-58
2021/05/13 03:35:19;;;;;;;8.07;4.32;;;;;;;;;;5054386;28;20041;-58
2021/05/13 03:37:45;;;;;;;6.05;4.03;;;;;;;;;;5054984;28;20049;-58
2021/05/13 03:40:14;;;;;;;8.40;4.20;;;;;;;;;;5070472;28;20455;-58
2021/05/13 03:42:41;;;;;;;6.93;3.90;;;;;;;;;;5037126;28;20025;-59
2021/05/13 03:45:07;;;;;;;6.00;3.63;;;;;;;;;;5054547;28;20479;-58
2021/05/13 03:47:36;;;;;;;4.95;4.22;;;;;;;;;;5054833;28;20406;-58
2021/05/13 03:50:04;;;;;;;5.05;4.13;;;;;;;;;;5054166;28;20111;-58
2021/05/13 03:52:34;;;;;;;10.65;4.43;;;;;;;;;;5036624;28;20413;-58
2021/05/13 03:55:00;;;;;;;5.95;4.32;;;;;;;;;;5036768;28;20037;-58
2021/05/13 03:57:26;;;;;;;5.45;4.85;;;;;;;;;;5054060;28;20033;-58
2021/05/13 03:59:56;;;;;;;14.30;4.95;;;;;;;;;;5054017;28;20049;-58
2021/05/13 04:02:32;;;;;;;8.18;4.32;;;;;;;;;;5036745;28;20079;-58
2021/05/13 04:05:01;;;;;;;5.88;4.32;;;;;;;;;;5036684;28;20074;-58
2021/05/13 04:07:32;;;;;;;5.90;4.75;;;;;;;;;;5036767;28;20387;-58
2021/05/13 04:10:00;;;;;;;7.15;4.93;;;;;;;;;;5054287;28;20028;-58
2021/05/13 04:12:30;;;;;;;5.97;4.47;;;;;;;;;;5036727;28;20458;-58
2021/05/13 04:15:01;;;;;;;7.63;5.22;;;;;;;;;;5053582;28;20025;-58
2021/05/13 04:17:30;;;;;;;5.80;4.28;;;;;;;;;;5053729;28;20028;-58
2021/05/13 04:19:56;;;;;;;6.03;5.15;;;;;;;;;;5035876;28;20063;-58
2021/05/13 04:22:22;;;;;;;4.43;3.83;;;;;;;;;;5053429;28;20024;-58
2021/05/13 04:24:48;;;;;;;4.60;4.05;;;;;;;;;;5053546;28;20029;-58
2021/05/13 04:27:14;;;;;;;4.70;4.13;;;;;;;;;;5054402;28;20375;-59
2021/05/13 04:29:47;;;;;;;6.53;4.40;;;;;;;;;;5035529;28;20079;-58
2021/05/13 04:32:19;;;;;;;6.00;4.38;;;;;;;;;;5053490;28;20029;-59
2021/05/13 04:34:54;;;;;;;7.82;4.65;;;;;;;;;;5053764;28;20037;-58
2021/05/13 04:37:20;;;;;;;7.18;4.47;;;;;;;;;;5054166;28;20069;-58
2021/05/13 04:39:52;;;;;;;9.57;4.72;;;;;;;;;;5052616;28;20035;-58
2021/05/13 04:42:22;;;;;;;6.22;4.65;;;;;;;;;;5035766;28;20083;-58
2021/05/13 04:44:52;;;;;;;8.55;4.80;;;;;;;;;;5053717;28;20025;-59
2021/05/13 04:47:25;;;;;;;6.22;4.82;;;;;;;;;;5053833;28;20037;-59
2021/05/13 04:49:52;;;;;;;6.03;4.55;;;;;;;;;;5054296;28;20025;-58
2021/05/13 04:52:19;;;;;;;11.02;4.43;;;;;;;;;;5053209;28;20040;-59
2021/05/13 04:54:51;;;;;;;5.82;4.63;;;;;;;;;;5068409;28;20037;-58
2021/05/13 04:57:22;;;;;;;6.07;4.93;;;;;;;;;;5036028;28;20036;-59
2021/05/13 04:59:49;;;;;;;5.38;4.25;;;;;;;;;;5053976;28;20410;-59
2021/05/13 05:02:15;;;;;;;8.98;5.72;;;;;;;;;;5053688;28;20032;-59
2021/05/13 05:04:44;;;;;;;13.15;6.03;;;;;;;;;;5053012;28;20475;-59
2021/05/13 05:07:15;;;;;;;6.25;5.35;;;;;;;;;;5035205;28;20037;-59
2021/05/13 05:09:41;;;;;;;7.90;5.15;;;;;;;;;;5053119;28;20021;-59
2021/05/13 05:12:12;;;;;;;6.40;5.57;;;;;;;;;;5053319;28;20174;-59
2021/05/13 05:14:44;;;;;;;7.55;5.07;;;;;;;;;;5035074;28;20029;-59
2021/05/13 05:17:14;;;;;;;6.43;4.50;;;;;;;;;;5053592;28;20025;-59
2021/05/13 05:19:43;;;;;;;4.05;3.58;;;;;;;;;;5053684;28;20022;-59
2021/05/13 05:22:10;;;;;;;5.70;4.00;;;;;;;;;;5053494;28;20025;-59
2021/05/13 05:24:42;;;;;;;5.60;4.57;;;;;;;;;;5053365;28;20027;-59
2021/05/13 05:27:08;;;;;;;4.03;3.40;;;;;;;;;;5053091;28;20094;-59
2021/05/13 05:29:35;;;;;;;4.47;3.30;;;;;;;;;;5053769;28;20060;-58
2021/05/13 05:32:04;;;;;;;5.65;4.18;;;;;;;;;;5035514;28;20025;-58
2021/05/13 05:34:30;;;;;;;8.98;3.67;;;;;;;;;;5051204;28;20360;-58
2021/05/13 05:36:59;;;;;;;7.00;4.78;;;;;;;;;;5049858;28;20107;-58
2021/05/13 05:39:28;;;;;;;7.00;3.90;;;;;;;;;;5034368;28;20088;-59
2021/05/13 05:41:54;;;;;;;6.28;4.05;;;;;;;;;;5050409;28;20110;-59
2021/05/13 05:44:26;;;;;;;7.15;4.40;;;;;;;;;;5052438;28;20508;-58
2021/05/13 05:46:55;;;;;;;5.75;4.90;;;;;;;;;;5034411;28;20029;-59
2021/05/13 05:49:21;;;;;;;6.25;4.82;;;;;;;;;;5052340;28;20071;-58
2021/05/13 05:51:51;;;;;;;6.05;3.97;;;;;;;;;;5069903;28;20502;-58
2021/05/13 05:54:20;;;;;;;5.78;4.30;;;;;;;;;;5070839;28;20021;-58
2021/05/13 05:56:46;;;;;;;8.57;4.63;;;;;;;;;;5053858;28;20471;-59
2021/05/13 05:59:18;;;;;;;6.30;3.78;;;;;;;;;;5056265;28;20028;-58
2021/05/13 06:01:45;;;;;;;5.70;4.15;;;;;;;;;;5056114;28;20037;-59
2021/05/13 06:04:13;;;;;;;7.65;4.38;;;;;;;;;;5055408;28;20485;-59
2021/05/13 06:06:42;;;;;;;5.32;4.05;;;;;;;;;;5070547;28;20416;-58
2021/05/13 06:09:09;;;;;;;6.40;4.55;;;;;;;;;;5038074;28;20435;-59
2021/05/13 06:11:36;;;;;;;6.15;4.30;;;;;;;;;;5056420;28;20025;-58
2021/05/13 06:14:02;;;;;;;4.93;4.25;;;;;;;;;;5055576;28;20033;-58
2021/05/13 06:16:36;;;;;;;6.60;4.47;;;;;;;;;;5054778;28;20048;-59
2021/05/13 06:19:02;;;;;;;5.93;4.15;;;;;;;;;;5055109;28;20057;-58
2021/05/13 06:21:28;;;;;;;4.05;3.45;;;;;;;;;;5038073;28;20410;-59
2021/05/13 06:23:56;;;;;;;5.82;4.53;;;;;;;;;;5055769;28;20355;-58
2021/05/13 06:26:26;;;;;;;5.00;4.13;;;;;;;;;;5037107;28;20036;-59
2021/05/13 06:28:52;;;;;;;6.90;4.90;;;;;;;;;;5054380;28;20021;-58
2021/05/13 06:31:19;;;;;;;6.30;4.28;;;;;;;;;;5055269;28;20467;-58
2021/05/13 06:33:45;;;;;;;5.00;4.50;;;;;;;;;;5055524;28;20021;-59
2021/05/13 06:36:15;;;;;;;6.25;4.10;;;;;;;;;;5054985;28;20065;-59
2021/05/13 06:38:41;;;;;;;5.78;4.70;;;;;;;;;;5053255;28;20386;-59
2021/05/13 06:41:14;;;;;;;4.47;3.95;;;;;;;;;;5037406;28;20029;-59
2021/05/13 06:43:40;;;;;;;5.30;4.22;;;;;;;;;;5054830;28;20075;-60
2021/05/13 06:46:06;;;;;;;5.32;4.82;;;;;;;;;;5055718;28;20132;-60
2021/05/13 06:48:36;;;;;;;5.32;4.07;;;;;;;;;;5055203;28;20486;-60
2021/05/13 06:51:06;;;;;;;5.82;4.50;;;;;;;;;;5055383;28;20068;-60
2021/05/13 06:53:32;;;;;;;7.18;4.25;;;;;;;;;;5055266;28;20021;-59
2021/05/13 06:56:01;;;;;;;6.82;3.95;;;;;;;;;;5036879;28;20029;-57
2021/05/13 06:58:29;;;;;;;5.60;4.00;;;;;;;;;;5054854;28;20029;-57
2021/05/13 07:00:56;;;;;;;5.72;3.38;;;;;;;;;;5055322;28;20021;-57
2021/05/13 07:03:22;;;;;;;4.93;3.63;;;;;;;;;;5036464;28;20410;-58
2021/05/13 07:05:48;;;;;;;4.22;3.08;;;;;;;;;;5054221;28;20033;-58
2021/05/13 07:08:17;;;;;;;4.15;3.70;;;;;;;;;;5036444;28;20059;-58
2021/05/13 07:10:43;;;;;;;3.92;3.20;;;;;;;;;;5054492;28;20523;-58
2021/05/13 07:13:09;;;;;;;4.47;3.50;;;;;;;;;;5054403;28;20410;-58
2021/05/13 07:15:36;;;;;;;5.75;4.05;;;;;;;;;;5036157;28;20360;-58
2021/05/13 07:18:04;;;;;;;4.20;2.92;;;;;;;;;;5054493;28;20425;-58
2021/05/13 07:20:32;;;;;;;4.20;3.30;;;;;;;;;;5069378;28;20017;-58
2021/05/13 07:22:58;;;;;;;5.18;3.67;;;;;;;;;;5036659;28;20028;-58
2021/05/13 07:25:25;;;;;;;4.13;2.67;;;;;;;;;;5054254;28;20020;-59
2021/05/13 07:27:51;;;;;;;5.70;3.55;;;;;;;;;;5054125;28;20356;-59
2021/05/13 07:30:17;;;;;;;7.18;4.03;;;;;;;;;;5054179;28;20021;-59
2021/05/13 07:32:44;;;;;;;5.45;3.72;;;;;;;;;;5054145;28;20032;-59
2021/05/13 07:35:12;;;;;;;4.35;3.10;;;;;;;;;;5054083;28;20029;-59
2021/05/13 07:37:38;;;;;;;4.05;2.90;;;;;;;;;;5054580;28;20053;-59
2021/05/13 07:40:04;;;;;;;6.97;4.32;;;;;;;;;;5053695;28;20032;-59
2021/05/13 07:42:33;;;;;;;3.63;2.40;;;;;;;;;;5053705;28;20037;-59
2021/05/13 07:44:59;;;;;;;4.90;2.47;;;;;;;;;;5035674;28;20463;-59
2021/05/13 07:47:27;;;;;;;4.95;3.15;;;;;;;;;;5052135;28;20411;-59
2021/05/13 07:49:53;;;;;;;4.18;2.67;;;;;;;;;;5035850;28;20111;-59
2021/05/13 07:52:19;;;;;;;3.67;2.45;;;;;;;;;;5035994;28;20439;-59
2021/05/13 07:54:45;;;;;;;5.47;3.00;;;;;;;;;;5053659;28;20021;-59
2021/05/13 07:57:12;;;;;;;2.80;1.98;;;;;;;;;;5036276;28;20127;-60
2021/05/13 07:59:39;;;;;;;4.15;2.88;;;;;;;;;;5053585;28;20478;-59
2021/05/13 08:02:05;;;;;;;6.07;3.05;;;;;;;;;;5036302;28;20163;-60
2021/05/13 08:04:34;;;;;;;3.88;2.58;;;;;;;;;;5053818;28;20025;-60
2021/05/13 08:07:00;;;;;;;3.97;2.20;;;;;;;;;;5036244;28;20352;-59
2021/05/13 08:09:26;;;;;;;2.88;1.90;;;;;;;;;;5053467;28;20437;-60
2021/05/13 08:11:52;;;;;;;3.97;2.30;;;;;;;;;;5053442;28;20025;-59
2021/05/13 08:14:18;;;;;;;4.60;2.70;;;;;;;;;;5034816;28;20029;-60
2021/05/13 08:16:44;;;;;;;3.90;1.95;;;;;;;;;;5053349;28;20086;-60
2021/05/13 08:19:11;;;;;;;2.75;2.05;;;;;;;;;;5053355;28;20032;-60
2021/05/13 08:21:37;;;;;;;2.10;1.13;;;;;;;;;;5035630;28;20037;-60
2021/05/13 08:24:03;;;;;;;7.03;1.17;;;;;;;;;;5053049;28;20032;-60
2021/05/13 08:26:29;;;;;;;4.35;0.82;;;;;;;;;;5053164;28;20025;-60
2021/05/13 08:28:56;;;;;;;2.90;0.77;;;;;;;;;;5035165;28;20070;-59
2021/05/13 08:31:22;;;;;;;2.00;0.82;;;;;;;;;;5051408;28;20364;-59
2021/05/13 08:33:48;;;;;;;4.07;1.20;;;;;;;;;;5053304;28;20528;-59
2021/05/13 08:36:14;;;;;;;3.03;1.00;;;;;;;;;;5035221;28;20049;-59
2021/05/13 08:38:40;;;;;;;1.05;0.47;;;;;;;;;;5068542;28;20432;-59
2021/05/13 08:41:06;;;;;;;2.58;1.30;;;;;;;;;;5068024;28;20533;-59
2021/05/13 08:43:33;;;;;;;2.10;1.05;;;;;;;;;;5053040;28;20036;-59
2021/05/13 08:45:59;;;;;;;4.10;1.50;;;;;;;;;;5035658;28;20047;-59
2021/05/13 08:48:28;;;;;;;1.73;0.98;;;;;;;;;;5053244;28;20017;-59
2021/05/13 08:50:54;;;;;;;1.58;0.80;;;;;;;;;;5051898;28;20052;-59
2021/05/13 08:53:20;;;;;;;2.60;1.20;;;;;;;;;;5052905;28;20031;-59
2021/05/13 08:55:47;;;;;;;1.33;0.70;;;;;;;;;;5052836;28;20356;-59
2021/05/13 08:58:13;;;;;;;1.63;0.93;;;;;;;;;;5034986;28;20471;-59
2021/05/13 09:00:39;;;;;;;3.60;1.40;;;;;;;;;;5052857;28;20458;-59
2021/05/13 09:03:05;;;;;;;3.85;2.20;;;;;;;;;;5035720;28;20025;-60
2021/05/13 09:05:49;;;;;;;3.92;2.55;;;;;;;;;;5034879;28;20025;-59
2021/05/13 09:08:20;;;;;;;2.53;1.85;;;;;;;;;;5035332;28;20447;-59
2021/05/13 09:10:50;;;;;;;4.22;2.47;;;;;;;;;;5034865;28;20025;-59
2021/05/13 09:13:26;;;;;;;4.13;2.20;;;;;;;;;;5053000;28;20441;-59
2021/05/13 09:15:52;;;;;;;3.67;2.03;;;;;;;;;;5035289;28;20120;-59
2021/05/13 09:18:29;;;;;;;4.78;2.38;;;;;;;;;;5052311;28;20506;-59
2021/05/13 09:21:03;;;;;;;2.88;1.80;;;;;;;;;;5052967;28;20060;-59
2021/05/13 09:23:29;;;;;;;3.05;2.63;;;;;;;;;;5035239;28;20032;-59
2021/05/13 09:26:11;;;;;;;2.70;1.98;;;;;;;;;;5037659;28;20031;-59
2021/05/13 09:28:40;;;;;;;3.10;1.90;;;;;;;;;;5039198;28;20078;-59
2021/05/13 09:31:06;;;;;;;5.60;2.47;;;;;;;;;;5072582;28;20068;-59
2021/05/13 09:33:36;;;;;;;5.25;1.80;;;;;;;;;;5057101;28;20029;-59
2021/05/13 09:36:19;;;;;;;3.38;2.10;;;;;;;;;;5056653;28;20049;-59
2021/05/13 09:38:45;;;;;;;5.50;2.80;;;;;;;;;;5056788;28;20036;-59
2021/05/13 09:41:11;;;;;;;3.13;2.15;;;;;;;;;;5039409;28;20056;-59
2021/05/13 09:43:38;;;;;;;2.70;1.52;;;;;;;;;;5056378;28;20083;-59
2021/05/13 09:46:05;;;;;;;2.10;1.35;;;;;;;;;;5071786;28;20041;-59
2021/05/13 09:48:34;;;;;;;4.95;2.08;;;;;;;;;;5038724;28;20117;-59
2021/05/13 09:51:19;;;;;;;3.42;1.40;;;;;;;;;;5056906;28;20029;-59
2021/05/13 09:53:48;;;;;;;2.13;1.40;;;;;;;;;;5056509;28;20025;-59
2021/05/13 09:56:23;;;;;;;3.20;1.83;;;;;;;;;;5056581;28;20116;-59
2021/05/13 09:58:49;;;;;;;3.13;1.85;;;;;;;;;;5056327;28;20044;-59
2021/05/13 10:01:15;;;;;;;3.72;1.70;;;;;;;;;;5038720;28;20029;-59
2021/05/13 10:03:43;;;;;;;3.28;1.80;;;;;;;;;;5056777;28;20032;-59
2021/05/13 10:06:12;;;;;;;2.63;1.63;;;;;;;;;;5056200;28;20029;-59
2021/05/13 10:08:47;;;;;;;3.03;1.67;;;;;;;;;;5039028;28;20112;-59
2021/05/13 10:11:15;;;;;;;2.45;1.45;;;;;;;;;;5056195;28;20029;-59
2021/05/13 10:13:42;;;;;;;3.90;2.00;;;;;;;;;;5056095;28;20096;-59
2021/05/13 10:16:08;;;;;;;3.17;2.08;;;;;;;;;;5038018;28;20029;-59
2021/05/13 10:18:43;;;;;;;3.88;1.98;;;;;;;;;;5055665;28;20052;-59
2021/05/13 10:21:24;;;;;;;3.50;1.48;;;;;;;;;;5038165;28;20463;-59
2021/05/13 10:23:50;;;;;;;4.60;1.60;;;;;;;;;;5055767;28;20029;-59
2021/05/13 10:26:37;;;;;;;3.53;1.95;;;;;;;;;;5055948;28;20049;-59
2021/05/13 10:29:24;;;;;;;4.32;1.70;;;;;;;;;;5045058;28;20356;-59
2021/05/13 10:32:02;;;;;;;5.13;1.80;;;;;;;;;;5045244;28;20340;-59
2021/05/13 10:34:47;;;;;;;5.18;1.73;;;;;;;;;;5055394;28;20471;-59
2021/05/13 10:37:16;;;;;;;3.10;1.42;;;;;;;;;;5054603;28;20049;-59
2021/05/13 10:40:01;;;;;;;2.97;1.50;;;;;;;;;;5054952;28;20029;-59
2021/05/13 10:42:33;;;;;;;5.18;1.48;;;;;;;;;;5055771;28;20390;-59
2021/05/13 10:44:59;;;;;;;2.88;1.35;;;;;;;;;;5055258;28;20031;-59
2021/05/13 10:47:29;;;;;;;5.63;2.15;;;;;;;;;;5055202;28;20018;-60
2021/05/13 10:49:56;;;;;;;1.70;1.10;;;;;;;;;;5037291;28;20083;-60
2021/05/13 10:52:33;;;;;;;1.90;1.25;;;;;;;;;;5055570;28;20029;-59
2021/05/13 10:55:00;;;;;;;2.65;1.73;;;;;;;;;;5055527;28;20371;-59
2021/05/13 10:57:26;;;;;;;3.20;1.20;;;;;;;;;;5037238;28;20021;-59
2021/05/13 11:00:08;;;;;;;2.63;1.30;;;;;;;;;;5037703;28;20032;-60
2021/05/13 11:02:46;;;;;;;2.90;1.27;;;;;;;;;;5055663;28;20025;-60
2021/05/13 11:05:30;;;;;;;3.60;1.58;;;;;;;;;;5037938;28;20052;-60
2021/05/13 11:07:57;;;;;;;6.05;1.30;;;;;;;;;;5037006;28;20029;-59
2021/05/13 11:10:42;;;;;;;3.13;1.02;;;;;;;;;;5036984;28;20029;-59
2021/05/13 11:13:13;;;;;;;3.03;1.17;;;;;;;;;;5054963;28;20080;-60
2021/05/13 11:15:43;;;;;;;2.28;0.90;;;;;;;;;;5036888;28;20119;-59
2021/05/13 11:18:12;;;;;;;8.37;3.03;;;;;;;;;;5054953;28;20079;-59
2021/05/13 11:20:49;;;;;;;3.90;1.10;;;;;;;;;;5054620;28;20033;-60
2021/05/13 11:23:29;;;;;;;3.67;1.20;;;;;;;;;;5054403;28;20029;-59
2021/05/13 11:25:56;;;;;;;2.10;0.95;;;;;;;;;;5070499;28;20418;-60
2021/05/13 11:28:35;;;;;;;5.43;1.00;;;;;;;;;;5054596;28;20021;-59
2021/05/13 11:31:04;;;;;;;1.65;0.90;;;;;;;;;;5054662;28;20032;-59
2021/05/13 11:33:46;;;;;;;1.30;0.73;;;;;;;;;;5055201;28;20423;-59
2021/05/13 11:36:18;;;;;;;3.15;1.35;;;;;;;;;;5053950;28;20049;-59
2021/05/13 11:38:45;;;;;;;0.85;0.52;;;;;;;;;;5054256;28;20458;-59
2021/05/13 11:41:11;;;;;;;2.78;1.30;;;;;;;;;;5036240;28;20071;-59
2021/05/13 11:43:39;;;;;;;3.20;1.13;;;;;;;;;;5054628;28;20029;-59
2021/05/13 11:46:12;;;;;;;1.90;0.80;;;;;;;;;;5054112;28;20110;-59
2021/05/13 11:48:42;;;;;;;0.95;0.60;;;;;;;;;;5052956;28;20075;-59
2021/05/13 11:51:14;;;;;;;2.67;1.20;;;;;;;;;;5054191;28;20116;-59
2021/05/13 11:53:42;;;;;;;3.17;0.63;;;;;;;;;;5054553;28;20029;-59
2021/05/13 11:56:08;;;;;;;1.88;0.68;;;;;;;;;;5053971;28;20032;-58
2021/05/13 11:58:38;;;;;;;1.33;0.47;;;;;;;;;;5053757;28;20056;-58
2021/05/13 12:01:21;;;;;;;4.60;0.83;;;;;;;;;;5054068;28;20482;-58
2021/05/13 12:03:48;;;;;;;1.20;0.73;;;;;;;;;;5053964;28;20104;-59
2021/05/13 12:06:14;;;;;;;5.80;4.05;;;;;;;;;;5035896;28;20462;-59
2021/05/13 12:08:40;;;;;;;5.57;1.88;;;;;;;;;;5054481;28;20032;-59
2021/05/13 12:11:21;;;;;;;1.63;0.68;;;;;;;;;;5054164;28;20025;-58
2021/05/13 12:13:48;;;;;;;1.90;0.80;;;;;;;;;;5054604;28;20043;-60
2021/05/13 12:16:15;;;;;;;1.88;0.80;;;;;;;;;;5054616;28;20029;-59
2021/05/13 12:18:44;;;;;;;1.35;0.57;;;;;;;;;;5053723;28;20102;-59
2021/05/13 12:21:12;;;;;;;1.42;0.60;;;;;;;;;;5053780;28;20017;-59
2021/05/13 12:23:42;;;;;;;1.77;0.60;;;;;;;;;;5054605;28;20017;-59
2021/05/13 12:26:08;;;;;;;1.83;0.80;;;;;;;;;;5035741;28;20021;-59
2021/05/13 12:28:36;;;;;;;2.00;0.90;;;;;;;;;;5035644;28;20052;-59
2021/05/13 12:31:02;;;;;;;0.73;0.43;;;;;;;;;;5054215;28;20021;-60
2021/05/13 12:33:31;;;;;;;2.13;0.98;;;;;;;;;;5052237;28;20462;-59
2021/05/13 12:35:57;;;;;;;3.67;1.63;;;;;;;;;;5053390;28;20110;-60
2021/05/13 12:38:24;;;;;;;1.25;0.40;;;;;;;;;;5053837;28;20037;-59
2021/05/13 12:41:05;;;;;;;1.88;1.15;;;;;;;;;;5053258;28;20104;-59
2021/05/13 12:43:31;;;;;;;2.88;0.60;;;;;;;;;;5053633;28;20036;-59
2021/05/13 12:45:57;;;;;;;0.93;0.43;;;;;;;;;;5053120;28;20029;-59
2021/05/13 12:48:24;;;;;;;1.55;0.70;;;;;;;;;;5053162;28;20025;-59
2021/05/13 12:50:58;;;;;;;1.23;0.50;;;;;;;;;;5053496;28;20029;-59
2021/05/13 12:53:24;;;;;;;1.15;0.32;;;;;;;;;;5053698;28;20048;-59
2021/05/13 12:55:51;;;;;;;1.25;0.45;;;;;;;;;;5053077;28;20029;-59
2021/05/13 12:58:25;;;;;;;2.38;0.52;;;;;;;;;;5053566;28;20026;-59
2021/05/13 13:01:01;;;;;;;1.58;0.65;;;;;;;;;;5056736;28;20346;-59
2021/05/13 13:03:30;;;;;;;0.57;0.20;;;;;;;;;;5057395;28;20025;-59
2021/05/13 13:06:06;;;;;;;4.97;0.68;;;;;;;;;;5057268;28;20056;-59
2021/05/13 13:08:43;;;;;;;1.92;0.50;;;;;;;;;;5057239;28;20063;-60
2021/05/13 13:11:09;;;;;;;1.33;0.60;;;;;;;;;;5039700;28;20443;-59
2021/05/13 13:13:48;;;;;;;1.30;0.40;;;;;;;;;;5057197;28;20032;-59
2021/05/13 13:16:16;;;;;;;0.98;0.40;;;;;;;;;;5057803;28;20124;-59
2021/05/13 13:18:42;;;;;;;1.63;0.65;;;;;;;;;;5055454;28;20032;-59
2021/05/13 13:21:18;;;;;;;0.95;0.47;;;;;;;;;;5056725;28;20016;-59
2021/05/13 13:23:47;;;;;;;0.60;0.30;;;;;;;;;;5057398;28;20033;-60
2021/05/13 13:26:16;;;;;;;0.90;0.47;;;;;;;;;;5056873;28;20079;-60
2021/05/13 13:28:43;;;;;;;0.73;0.35;;;;;;;;;;5057236;28;20149;-60
2021/05/13 13:31:13;;;;;;;0.90;0.52;;;;;;;;;;5039622;28;20048;-59
2021/05/13 13:33:39;;;;;;;0.63;0.32;;;;;;;;;;5056919;28;20087;-60
2021/05/13 13:36:05;;;;;;;1.20;0.50;;;;;;;;;;5057059;28;20057;-60
2021/05/13 13:38:32;;;;;;;2.70;0.95;;;;;;;;;;5057008;28;20064;-60
2021/05/13 13:40:59;;;;;;;2.33;0.73;;;;;;;;;;5057428;28;20029;-60
2021/05/13 13:43:27;;;;;;;1.85;0.40;;;;;;;;;;5056328;28;20532;-60
2021/05/13 13:45:53;;;;;;;1.30;0.75;;;;;;;;;;5056854;28;20068;-60
2021/05/13 13:48:20;;;;;;;1.20;0.50;;;;;;;;;;5056876;28;20021;-60
2021/05/13 13:50:48;;;;;;;0.95;0.47;;;;;;;;;;5056363;28;20382;-60
2021/05/13 13:53:15;;;;;;;0.75;0.20;;;;;;;;;;5038589;28;20052;-60
2021/05/13 13:55:41;;;;;;;0.70;0.40;;;;;;;;;;5056933;28;20136;-59
2021/05/13 13:58:07;;;;;;;1.15;0.63;;;;;;;;;;5071832;28;20036;-59
2021/05/13 14:00:33;;;;;;;2.30;0.93;;;;;;;;;;5056272;28;20029;-60
2021/05/13 14:02:59;;;;;;;1.85;0.63;;;;;;;;;;5056130;28;20055;-59
2021/05/13 14:05:27;;;;;;;0.70;0.40;;;;;;;;;;5056509;28;20429;-60
2021/05/13 14:07:53;;;;;;;2.42;0.80;;;;;;;;;;5038088;28;20032;-59
2021/05/13 14:10:19;;;;;;;1.45;0.50;;;;;;;;;;5056339;28;20548;-60
2021/05/13 14:12:46;;;;;;;1.48;0.40;;;;;;;;;;5054920;28;20032;-60
2021/05/13 14:15:13;;;;;;;0.52;0.30;;;;;;;;;;5056057;28;20041;-59
2021/05/13 14:17:39;;;;;;;2.75;0.28;;;;;;;;;;5055772;28;20028;-60
2021/05/13 14:20:06;;;;;;;1.20;0.28;;;;;;;;;;5038733;28;20454;-59
2021/05/13 14:22:32;;;;;;;0.57;0.22;;;;;;;;;;5055553;28;20407;-60
2021/05/13 14:24:59;;;;;;;0.73;0.32;;;;;;;;;;5055962;28;20029;-59
2021/05/13 14:27:25;;;;;;;0.52;0.20;;;;;;;;;;5055676;28;20348;-60
2021/05/13 14:29:51;;;;;;;1.23;0.38;;;;;;;;;;5055632;28;20025;-59
2021/05/13 14:32:17;;;;;;;0.52;0.28;;;;;;;;;;5056395;28;20021;-60
2021/05/13 14:34:43;;;;;;;0.47;0.20;;;;;;;;;;5055594;28;20033;-60
2021/05/13 14:37:09;;;;;;;0.15;0.10;;;;;;;;;;5055696;28;20099;-60
2021/05/13 14:39:36;;;;;;;1.40;0.15;;;;;;;;;;5056318;28;20148;-59
2021/05/13 14:42:02;;;;;;;0.50;0.20;;;;;;;;;;5056414;28;20052;-60
2021/05/13 14:44:28;;;;;;;0.65;0.22;;;;;;;;;;5055547;28;20029;-60
2021/05/13 14:46:54;;;;;;;0.45;0.20;;;;;;;;;;5055182;28;20114;-60
2021/05/13 14:51:51;;;;;;;0.65;0.40;;;;;;;;;;5055356;28;20122;-59
2021/05/13 14:54:17;;;;;;;1.23;0.52;;;;;;;;;;5055242;28;20378;-59
2021/05/13 14:56:43;;;;;;;1.08;0.32;;;;;;;;;;5070580;28;20073;-59